Time;durP1;ratioP1;P1;durP2;ratioP2;P2;SDS_P1;SDS_P2;PMS_P1;PMS_P2;Temp;Humidity;BMP_temperature;BMP_pressure;BME280_temperature;BME280_humidity;BME280_pressure;Samples;Min_cycle;Max_cycle;Signal;HPM_P1;HPM_P2
2022/03/30 00:01:55;;;;;;;30.13;15.52;;;;;;;;;;5054620;28;20328;-60
2022/03/30 00:04:20;;;;;;;29.80;16.10;;;;;;;;;;5058014;28;21848;-60
2022/03/30 00:06:45;;;;;;;32.15;16.60;;;;;;;;;;5061243;28;20659;-60
2022/03/30 00:09:11;;;;;;;31.45;16.27;;;;;;;;;;5057059;28;20219;-60
2022/03/30 00:11:36;;;;;;;31.75;15.93;;;;;;;;;;5058586;28;21134;-60
2022/03/30 00:14:01;;;;;;;33.63;15.93;;;;;;;;;;5052823;28;20222;-60
2022/03/30 00:16:26;;;;;;;31.17;15.40;;;;;;;;;;5035532;28;20211;-60
2022/03/30 00:18:52;;;;;;;30.40;15.27;;;;;;;;;;5037523;28;20264;-60
2022/03/30 00:21:17;;;;;;;33.47;15.38;;;;;;;;;;5047009;28;20218;-60
2022/03/30 00:23:42;;;;;;;27.45;15.32;;;;;;;;;;5055168;28;20238;-60
2022/03/30 00:26:07;;;;;;;31.53;15.07;;;;;;;;;;5061631;28;20214;-60
2022/03/30 00:28:33;;;;;;;29.50;14.93;;;;;;;;;;5060427;28;20213;-60
2022/03/30 00:30:58;;;;;;;33.30;15.77;;;;;;;;;;5042425;28;20229;-60
2022/03/30 00:33:24;;;;;;;27.55;15.35;;;;;;;;;;5041314;28;20639;-60
2022/03/30 00:35:49;;;;;;;33.20;15.20;;;;;;;;;;5047661;28;20725;-60
2022/03/30 00:38:14;;;;;;;29.08;14.90;;;;;;;;;;5033722;28;20223;-60
2022/03/30 00:40:39;;;;;;;36.75;16.08;;;;;;;;;;5035920;28;20210;-60
2022/03/30 00:43:05;;;;;;;27.95;14.57;;;;;;;;;;5040451;28;20215;-60
2022/03/30 00:45:30;;;;;;;29.60;15.30;;;;;;;;;;5042246;28;21195;-61
2022/03/30 00:47:55;;;;;;;33.47;15.68;;;;;;;;;;5044525;28;20411;-60
2022/03/30 00:50:21;;;;;;;29.05;14.40;;;;;;;;;;5041566;28;20215;-60
2022/03/30 00:52:47;;;;;;;27.88;15.02;;;;;;;;;;5043168;28;20206;-60
2022/03/30 00:55:13;;;;;;;30.48;13.68;;;;;;;;;;5060322;28;21094;-60
2022/03/30 00:57:39;;;;;;;30.33;15.13;;;;;;;;;;5031445;28;20228;-60
2022/03/30 01:00:05;;;;;;;33.20;14.90;;;;;;;;;;5014624;28;20210;-60
2022/03/30 01:02:31;;;;;;;27.80;13.98;;;;;;;;;;5014302;28;20204;-60
2022/03/30 01:04:56;;;;;;;28.38;14.70;;;;;;;;;;5026949;28;20790;-60
2022/03/30 01:07:21;;;;;;;36.80;14.90;;;;;;;;;;5038717;28;20345;-60
2022/03/30 01:09:46;;;;;;;26.95;14.65;;;;;;;;;;5021802;28;20687;-60
2022/03/30 01:12:12;;;;;;;28.73;13.73;;;;;;;;;;5021768;28;20219;-60
2022/03/30 01:14:37;;;;;;;33.33;15.18;;;;;;;;;;5030329;28;20215;-60
2022/03/30 01:17:03;;;;;;;26.87;13.67;;;;;;;;;;5040280;28;20214;-60
2022/03/30 01:19:29;;;;;;;33.00;15.10;;;;;;;;;;5039427;28;20766;-60
2022/03/30 01:21:54;;;;;;;29.95;14.73;;;;;;;;;;5037458;28;20259;-60
2022/03/30 01:24:20;;;;;;;29.60;14.30;;;;;;;;;;5036681;28;21058;-60
2022/03/30 01:26:45;;;;;;;27.85;13.90;;;;;;;;;;5040161;28;20261;-60
2022/03/30 01:34:38;;;;;;;29.80;14.05;;;;;;;;;;5044511;28;21231;-60
2022/03/30 01:37:04;;;;;;;30.80;13.98;;;;;;;;;;5029109;28;20211;-60
2022/03/30 01:39:29;;;;;;;27.95;13.73;;;;;;;;;;5039750;28;20235;-60
2022/03/30 01:41:55;;;;;;;28.85;13.85;;;;;;;;;;5023310;28;20774;-60
2022/03/30 01:44:20;;;;;;;26.48;13.90;;;;;;;;;;5016987;28;20212;-60
2022/03/30 01:46:46;;;;;;;34.58;14.82;;;;;;;;;;5017153;28;20212;-60
2022/03/30 01:49:11;;;;;;;30.52;13.82;;;;;;;;;;5019035;28;20219;-60
2022/03/30 01:51:36;;;;;;;30.17;14.05;;;;;;;;;;5043845;28;20217;-60
2022/03/30 01:54:01;;;;;;;31.13;14.37;;;;;;;;;;5044146;28;20321;-60
2022/03/30 01:56:27;;;;;;;25.40;13.55;;;;;;;;;;5041303;28;20254;-60
2022/03/30 01:58:52;;;;;;;25.90;13.60;;;;;;;;;;5051055;28;20349;-60
2022/03/30 02:01:17;;;;;;;33.63;13.68;;;;;;;;;;5044841;28;20276;-60
2022/03/30 02:03:42;;;;;;;32.75;13.82;;;;;;;;;;5044619;28;20273;-60
2022/03/30 02:06:08;;;;;;;30.20;14.03;;;;;;;;;;5034119;28;20211;-60
2022/03/30 02:08:34;;;;;;;26.60;14.18;;;;;;;;;;5037884;28;20198;-60
2022/03/30 02:11:00;;;;;;;27.65;14.05;;;;;;;;;;5057064;28;20625;-60
2022/03/30 02:13:25;;;;;;;31.92;13.35;;;;;;;;;;5046504;28;20206;-60
2022/03/30 02:15:50;;;;;;;32.63;14.60;;;;;;;;;;5044516;28;20713;-60
2022/03/30 02:18:16;;;;;;;26.85;13.70;;;;;;;;;;5043700;28;20447;-60
2022/03/30 02:20:41;;;;;;;32.97;14.18;;;;;;;;;;5043504;28;20405;-60
2022/03/30 02:23:06;;;;;;;32.05;14.10;;;;;;;;;;5047490;28;20214;-60
2022/03/30 02:25:32;;;;;;;27.03;13.77;;;;;;;;;;5060422;28;20283;-60
2022/03/30 02:27:57;;;;;;;28.83;14.52;;;;;;;;;;5059857;28;20210;-60
2022/03/30 02:30:22;;;;;;;28.70;13.02;;;;;;;;;;5054118;28;20299;-60
2022/03/30 02:32:48;;;;;;;29.95;14.00;;;;;;;;;;5043497;28;20314;-60
2022/03/30 02:35:13;;;;;;;32.55;13.90;;;;;;;;;;5057524;28;20747;-59
2022/03/30 02:37:39;;;;;;;28.05;14.00;;;;;;;;;;5044286;28;21108;-60
2022/03/30 02:40:04;;;;;;;31.25;13.98;;;;;;;;;;5043682;28;20207;-60
2022/03/30 02:42:29;;;;;;;33.63;14.20;;;;;;;;;;5047768;28;20650;-60
2022/03/30 02:44:55;;;;;;;26.90;13.93;;;;;;;;;;5043948;28;20211;-60
2022/03/30 02:48:17;;;;;;;30.50;14.38;;;;;;;;;;5044951;28;20520;-60
2022/03/30 02:50:05;;;;;;;29.77;14.18;;;;;;;;;;5045213;28;20215;-60
2022/03/30 02:52:30;;;;;;;32.97;16.17;;;;;;;;;;5036440;28;20500;-60
2022/03/30 02:54:56;;;;;;;29.00;14.27;;;;;;;;;;5035470;28;20244;-59
2022/03/30 02:57:21;;;;;;;33.47;15.45;;;;;;;;;;5037049;28;20234;-60
2022/03/30 02:59:46;;;;;;;30.88;14.15;;;;;;;;;;5055951;28;20297;-60
2022/03/30 03:02:12;;;;;;;31.17;14.55;;;;;;;;;;5044257;28;20211;-60
2022/03/30 03:04:38;;;;;;;28.60;14.20;;;;;;;;;;5043803;28;20682;-60
2022/03/30 03:07:04;;;;;;;28.92;14.77;;;;;;;;;;5042840;28;20565;-60
2022/03/30 03:09:29;;;;;;;29.97;15.00;;;;;;;;;;5052510;28;20348;-60
2022/03/30 03:11:54;;;;;;;32.58;15.13;;;;;;;;;;5063152;28;20209;-60
2022/03/30 03:14:19;;;;;;;33.95;15.30;;;;;;;;;;5055343;28;20315;-60
2022/03/30 03:16:45;;;;;;;32.63;15.20;;;;;;;;;;5050503;28;20260;-60
2022/03/30 03:19:10;;;;;;;31.53;15.30;;;;;;;;;;5035478;28;20284;-60
2022/03/30 03:21:35;;;;;;;30.40;14.90;;;;;;;;;;5042186;28;20292;-60
2022/03/30 03:24:00;;;;;;;37.22;15.32;;;;;;;;;;5048577;28;20219;-60
2022/03/30 03:26:26;;;;;;;29.93;15.10;;;;;;;;;;5045443;28;20223;-59
2022/03/30 03:28:51;;;;;;;33.67;16.33;;;;;;;;;;5043214;28;20218;-59
2022/03/30 03:31:16;;;;;;;33.03;14.73;;;;;;;;;;5046228;28;20411;-60
2022/03/30 03:33:41;;;;;;;30.50;15.00;;;;;;;;;;5047134;28;20211;-60
2022/03/30 03:36:07;;;;;;;31.97;15.33;;;;;;;;;;5038093;28;20231;-60
2022/03/30 03:38:32;;;;;;;35.20;16.17;;;;;;;;;;5034325;28;20222;-60
2022/03/30 03:40:57;;;;;;;31.23;15.20;;;;;;;;;;5035453;28;20681;-60
2022/03/30 03:43:22;;;;;;;32.47;15.13;;;;;;;;;;5049762;28;20218;-60
2022/03/30 03:45:48;;;;;;;38.77;15.47;;;;;;;;;;5046280;28;20356;-60
2022/03/30 03:48:13;;;;;;;30.37;14.83;;;;;;;;;;5042114;28;20203;-60
2022/03/30 03:50:38;;;;;;;31.93;14.70;;;;;;;;;;5042685;28;20210;-60
2022/03/30 03:53:03;;;;;;;32.27;16.10;;;;;;;;;;5041843;28;20208;-60
2022/03/30 03:55:31;;;;;;;35.80;15.27;;;;;;;;;;5061857;28;20219;-59
2022/03/30 03:57:56;;;;;;;29.05;14.70;;;;;;;;;;5059362;28;20245;-60
2022/03/30 04:00:21;;;;;;;30.60;14.70;;;;;;;;;;5035424;28;20234;-60
2022/03/30 04:02:47;;;;;;;34.53;15.68;;;;;;;;;;5034576;28;20314;-60
2022/03/30 04:05:13;;;;;;;30.10;14.98;;;;;;;;;;5034976;28;20229;-60
2022/03/30 04:07:39;;;;;;;28.37;14.20;;;;;;;;;;5044258;28;20605;-60
2022/03/30 04:10:05;;;;;;;28.20;14.43;;;;;;;;;;5046603;28;20210;-60
2022/03/30 04:12:30;;;;;;;33.63;15.18;;;;;;;;;;5061601;28;20213;-60
2022/03/30 04:14:55;;;;;;;39.30;16.50;;;;;;;;;;5061922;28;20238;-60
2022/03/30 04:17:21;;;;;;;37.73;16.73;;;;;;;;;;5048274;28;20218;-60
2022/03/30 04:19:46;;;;;;;32.87;15.57;;;;;;;;;;5061585;28;20248;-59
2022/03/30 04:22:11;;;;;;;31.98;14.88;;;;;;;;;;5044280;28;20316;-60
2022/03/30 04:24:36;;;;;;;30.40;14.53;;;;;;;;;;5034524;28;20211;-60
2022/03/30 04:27:02;;;;;;;31.73;15.23;;;;;;;;;;5033630;28;20214;-60
2022/03/30 04:29:27;;;;;;;28.87;14.83;;;;;;;;;;5041154;28;20211;-59
2022/03/30 04:31:52;;;;;;;31.13;15.27;;;;;;;;;;5041980;28;20216;-60
2022/03/30 04:34:17;;;;;;;30.15;15.20;;;;;;;;;;5041172;28;20230;-60
2022/03/30 04:36:43;;;;;;;28.45;13.63;;;;;;;;;;5054158;28;20217;-59
2022/03/30 04:39:08;;;;;;;32.07;15.33;;;;;;;;;;5061426;28;20643;-60
2022/03/30 04:41:33;;;;;;;30.50;15.07;;;;;;;;;;5053024;28;20207;-60
2022/03/30 04:43:58;;;;;;;30.00;15.60;;;;;;;;;;5037629;28;20211;-59
2022/03/30 04:46:24;;;;;;;32.47;14.95;;;;;;;;;;5033485;28;20214;-60
2022/03/30 04:48:49;;;;;;;33.15;14.70;;;;;;;;;;5033474;28;20226;-60
2022/03/30 04:51:14;;;;;;;27.47;14.97;;;;;;;;;;5039209;28;20581;-60
2022/03/30 04:53:39;;;;;;;33.47;15.17;;;;;;;;;;5051340;28;20210;-60
2022/03/30 04:56:05;;;;;;;30.70;14.63;;;;;;;;;;5064527;28;20244;-60
2022/03/30 04:58:30;;;;;;;28.97;13.70;;;;;;;;;;5062182;28;20195;-60
2022/03/30 05:00:56;;;;;;;31.93;14.40;;;;;;;;;;5046331;28;20222;-60
2022/03/30 05:03:21;;;;;;;31.93;13.50;;;;;;;;;;5044817;28;20346;-59
2022/03/30 05:05:46;;;;;;;29.33;15.50;;;;;;;;;;5044028;28;20215;-60
2022/03/30 05:08:11;;;;;;;29.60;14.70;;;;;;;;;;5048031;28;20207;-59
2022/03/30 05:10:36;;;;;;;29.67;15.03;;;;;;;;;;5057540;28;20616;-59
2022/03/30 05:13:04;;;;;;;32.70;15.57;;;;;;;;;;5058677;28;20661;-59
2022/03/30 05:15:29;;;;;;;32.07;15.53;;;;;;;;;;5065082;28;20242;-60
2022/03/30 05:17:55;;;;;;;24.97;14.10;;;;;;;;;;5061083;28;20206;-75
2022/03/30 05:20:20;;;;;;;28.85;14.52;;;;;;;;;;5049108;28;20226;-73
2022/03/30 05:22:46;;;;;;;98.90;67.97;;;;;;;;;;5049352;28;20576;-68
2022/03/30 05:25:12;;;;;;;285.57;219.73;;;;;;;;;;5058418;28;20459;-70
2022/03/30 05:27:37;;;;;;;37.57;23.40;;;;;;;;;;5045596;28;20218;-68
2022/03/30 05:30:03;;;;;;;85.65;54.35;;;;;;;;;;5056508;28;20896;-59
2022/03/30 05:32:28;;;;;;;60.77;39.40;;;;;;;;;;5056525;28;20406;-59
2022/03/30 05:34:53;;;;;;;33.27;15.47;;;;;;;;;;5057302;28;20460;-59
2022/03/30 05:37:19;;;;;;;40.63;24.07;;;;;;;;;;5043457;28;20215;-59
2022/03/30 05:39:45;;;;;;;32.00;20.10;;;;;;;;;;5045672;28;20199;-59
2022/03/30 05:42:11;;;;;;;34.67;20.73;;;;;;;;;;5045472;28;20736;-70
2022/03/30 05:44:37;;;;;;;46.85;38.78;;;;;;;;;;5064215;28;20214;-59
2022/03/30 05:47:02;;;;;;;31.73;20.87;;;;;;;;;;5064242;28;20215;-60
2022/03/30 05:49:27;;;;;;;33.60;14.37;;;;;;;;;;5050999;28;20214;-59
2022/03/30 05:51:53;;;;;;;27.77;13.90;;;;;;;;;;5039921;28;20789;-59
2022/03/30 05:54:18;;;;;;;28.93;14.37;;;;;;;;;;5036813;28;20274;-59
2022/03/30 05:57:02;;;;;;;27.80;14.00;;;;;;;;;;5036511;28;20235;-57
2022/03/30 05:59:27;;;;;;;31.43;20.03;;;;;;;;;;5042042;28;20226;-58
2022/03/30 06:01:53;;;;;;;35.70;15.50;;;;;;;;;;5046552;28;20214;-58
2022/03/30 06:04:18;;;;;;;24.45;14.50;;;;;;;;;;5045425;28;20207;-58
2022/03/30 06:06:43;;;;;;;25.57;13.83;;;;;;;;;;5044263;28;20245;-58
2022/03/30 06:09:08;;;;;;;35.88;21.58;;;;;;;;;;5044565;28;20306;-58
2022/03/30 06:11:34;;;;;;;28.90;13.80;;;;;;;;;;5063679;28;20211;-58
2022/03/30 06:13:59;;;;;;;27.85;13.80;;;;;;;;;;5061783;28;20222;-58
2022/03/30 06:16:26;;;;;;;24.57;14.13;;;;;;;;;;5055720;28;20209;-59
2022/03/30 06:18:52;;;;;;;31.40;14.50;;;;;;;;;;5055619;28;20214;-58
2022/03/30 06:21:17;;;;;;;31.53;13.67;;;;;;;;;;5058322;28;20696;-59
2022/03/30 06:23:43;;;;;;;21.87;13.43;;;;;;;;;;5042488;28;20211;-58
2022/03/30 06:26:08;;;;;;;27.95;13.85;;;;;;;;;;5043648;28;20223;-58
2022/03/30 06:28:33;;;;;;;24.92;13.43;;;;;;;;;;5044369;28;20288;-58
2022/03/30 06:30:58;;;;;;;25.77;13.57;;;;;;;;;;5064514;28;20214;-58
2022/03/30 06:33:24;;;;;;;26.52;14.25;;;;;;;;;;5062896;28;20214;-58
2022/03/30 06:35:49;;;;;;;24.70;13.75;;;;;;;;;;5058009;28;20812;-59
2022/03/30 06:38:14;;;;;;;23.35;13.13;;;;;;;;;;5030247;28;20619;-59
2022/03/30 06:40:39;;;;;;;30.88;13.82;;;;;;;;;;5036479;28;20211;-59
2022/03/30 06:43:05;;;;;;;26.02;13.30;;;;;;;;;;5036210;28;20218;-59
2022/03/30 06:45:30;;;;;;;28.50;14.98;;;;;;;;;;5043430;28;20577;-59
2022/03/30 06:47:56;;;;;;;26.13;13.25;;;;;;;;;;5043447;28;20283;-59
2022/03/30 06:50:21;;;;;;;24.40;13.73;;;;;;;;;;5043499;28;20341;-59
2022/03/30 06:52:46;;;;;;;27.67;14.52;;;;;;;;;;5044528;28;20203;-62
2022/03/30 06:55:12;;;;;;;27.95;13.60;;;;;;;;;;5062270;28;20222;-58
2022/03/30 06:57:38;;;;;;;27.90;14.27;;;;;;;;;;5063704;28;20758;-58
2022/03/30 07:00:04;;;;;;;33.42;14.63;;;;;;;;;;5042091;28;20215;-59
2022/03/30 07:02:29;;;;;;;26.05;13.35;;;;;;;;;;5059131;28;20756;-59
2022/03/30 07:04:55;;;;;;;30.58;13.85;;;;;;;;;;5073631;28;20253;-59
2022/03/30 07:10:16;;;;;;;28.75;13.85;;;;;;;;;;5072464;28;20272;-60
2022/03/30 07:12:43;;;;;;;32.93;14.47;;;;;;;;;;5066789;28;20215;-59
2022/03/30 07:15:08;;;;;;;32.10;13.77;;;;;;;;;;5059995;28;20641;-60
2022/03/30 07:17:33;;;;;;;30.00;14.53;;;;;;;;;;5060673;28;20203;-59
2022/03/30 07:19:59;;;;;;;28.17;14.13;;;;;;;;;;5053273;28;20211;-59
2022/03/30 07:22:24;;;;;;;28.25;14.07;;;;;;;;;;5060291;28;20717;-59
2022/03/30 07:24:49;;;;;;;30.83;16.05;;;;;;;;;;5073034;28;20535;-59
2022/03/30 07:27:14;;;;;;;24.80;13.33;;;;;;;;;;5072828;28;20221;-60
2022/03/30 07:29:40;;;;;;;27.83;14.77;;;;;;;;;;5072168;28;20621;-59
2022/03/30 07:32:05;;;;;;;28.33;13.53;;;;;;;;;;5072609;28;20210;-59
2022/03/30 07:34:30;;;;;;;27.85;13.68;;;;;;;;;;5072782;28;20224;-59
2022/03/30 07:36:56;;;;;;;29.87;15.33;;;;;;;;;;5055886;28;20420;-58
2022/03/30 07:39:21;;;;;;;57.70;33.33;;;;;;;;;;5052233;28;20215;-60
2022/03/30 07:41:46;;;;;;;54.08;32.17;;;;;;;;;;5062691;28;20268;-59
2022/03/30 07:44:12;;;;;;;32.38;18.48;;;;;;;;;;5071691;28;20215;-58
2022/03/30 07:46:37;;;;;;;21.30;11.40;;;;;;;;;;5072733;28;20213;-58
2022/03/30 07:49:02;;;;;;;31.95;17.85;;;;;;;;;;5072135;28;20210;-61
2022/03/30 07:51:29;;;;;;;38.67;22.87;;;;;;;;;;5070968;28;20425;-60
2022/03/30 07:53:54;;;;;;;23.88;11.75;;;;;;;;;;5072682;28;20209;-60
2022/03/30 07:56:20;;;;;;;24.00;12.38;;;;;;;;;;5071876;28;20317;-60
2022/03/30 07:58:48;;;;;;;22.77;11.32;;;;;;;;;;5065852;28;20666;-61
2022/03/30 08:01:13;;;;;;;26.85;11.32;;;;;;;;;;5055982;28;20742;-62
2022/03/30 08:03:38;;;;;;;26.25;11.85;;;;;;;;;;5054749;28;20285;-60
2022/03/30 08:06:04;;;;;;;32.78;13.63;;;;;;;;;;5059721;28;20211;-60
2022/03/30 08:08:29;;;;;;;28.73;12.90;;;;;;;;;;5071189;28;20752;-60
2022/03/30 08:10:54;;;;;;;26.15;11.75;;;;;;;;;;5070818;28;20210;-60
2022/03/30 08:13:20;;;;;;;28.38;12.00;;;;;;;;;;5068379;28;20305;-61
2022/03/30 08:15:45;;;;;;;24.40;11.48;;;;;;;;;;5069414;28;20221;-60
2022/03/30 08:18:11;;;;;;;28.38;11.77;;;;;;;;;;5071232;28;20225;-59
2022/03/30 08:23:19;;;;;;;19.27;10.05;;;;;;;;;;5071898;28;20303;-59
2022/03/30 08:25:45;;;;;;;25.17;11.18;;;;;;;;;;5071533;28;20253;-60
2022/03/30 08:28:10;;;;;;;21.83;10.18;;;;;;;;;;5071880;28;20218;-60
2022/03/30 08:30:35;;;;;;;29.83;11.55;;;;;;;;;;5071993;28;20225;-61
2022/03/30 08:33:02;;;;;;;23.85;10.60;;;;;;;;;;5070802;28;20216;-60
2022/03/30 08:35:27;;;;;;;26.30;12.80;;;;;;;;;;5071793;28;20237;-61
2022/03/30 08:37:53;;;;;;;20.58;10.68;;;;;;;;;;5072180;28;20693;-61
2022/03/30 08:40:18;;;;;;;20.52;9.85;;;;;;;;;;5070568;28;20213;-60
2022/03/30 08:42:43;;;;;;;21.98;10.40;;;;;;;;;;5054645;28;20219;-60
2022/03/30 08:45:09;;;;;;;22.13;11.18;;;;;;;;;;5051448;28;20230;-60
2022/03/30 08:47:34;;;;;;;24.77;11.82;;;;;;;;;;5051402;28;20314;-61
2022/03/30 08:49:59;;;;;;;23.50;11.50;;;;;;;;;;5051573;28;20237;-61
2022/03/30 08:52:25;;;;;;;20.30;11.60;;;;;;;;;;5051472;28;20281;-61
2022/03/30 08:54:51;;;;;;;24.60;11.60;;;;;;;;;;5051269;28;20264;-60
2022/03/30 08:57:16;;;;;;;22.25;10.15;;;;;;;;;;5050852;28;20239;-60
2022/03/30 09:00:02;;;;;;;20.90;11.40;;;;;;;;;;5065495;28;20230;-60
2022/03/30 09:02:33;;;;;;;16.42;9.13;;;;;;;;;;5071404;28;20620;-60
2022/03/30 09:05:12;;;;;;;16.83;9.77;;;;;;;;;;5071792;28;20206;-61
2022/03/30 09:07:38;;;;;;;17.98;10.23;;;;;;;;;;5071055;28;20240;-60
2022/03/30 09:10:03;;;;;;;15.70;9.60;;;;;;;;;;5071077;28;20434;-59
2022/03/30 09:12:28;;;;;;;14.40;8.30;;;;;;;;;;5065028;28;20605;-60
2022/03/30 09:14:59;;;;;;;13.52;8.23;;;;;;;;;;5050753;28;20219;-59
2022/03/30 09:17:24;;;;;;;13.90;8.15;;;;;;;;;;5051562;28;20254;-61
2022/03/30 09:19:51;;;;;;;17.90;11.38;;;;;;;;;;5051789;28;20709;-60
2022/03/30 09:22:16;;;;;;;19.40;10.73;;;;;;;;;;5050294;28;20420;-60
2022/03/30 09:24:41;;;;;;;20.88;11.25;;;;;;;;;;5051586;28;20218;-61
2022/03/30 09:27:07;;;;;;;17.85;10.73;;;;;;;;;;5050803;28;20215;-60
2022/03/30 09:29:32;;;;;;;16.15;9.43;;;;;;;;;;5033269;28;20203;-60
2022/03/30 09:32:01;;;;;;;15.05;9.07;;;;;;;;;;5051637;28;20219;-61
2022/03/30 09:34:26;;;;;;;16.42;9.23;;;;;;;;;;5051236;28;20219;-60
2022/03/30 09:36:52;;;;;;;15.85;9.07;;;;;;;;;;5032850;28;20214;-61
2022/03/30 09:39:35;;;;;;;20.13;9.18;;;;;;;;;;5050997;28;20253;-60
2022/03/30 09:42:01;;;;;;;19.63;9.30;;;;;;;;;;5066418;28;20214;-61
2022/03/30 09:44:28;;;;;;;16.30;8.60;;;;;;;;;;5074509;28;20207;-61
2022/03/30 09:46:55;;;;;;;14.73;8.80;;;;;;;;;;5057193;28;20206;-61
2022/03/30 09:49:33;;;;;;;17.52;9.80;;;;;;;;;;5074488;28;20736;-60
2022/03/30 09:51:58;;;;;;;17.75;9.27;;;;;;;;;;5075035;28;20225;-61
2022/03/30 09:54:39;;;;;;;16.48;8.75;;;;;;;;;;5071424;28;20231;-60
2022/03/30 09:57:23;;;;;;;15.15;8.52;;;;;;;;;;5060275;28;20239;-59
2022/03/30 09:59:55;;;;;;;13.75;8.50;;;;;;;;;;5069395;28;20665;-60
2022/03/30 10:02:20;;;;;;;17.52;7.97;;;;;;;;;;5062241;28;20211;-60
2022/03/30 10:04:46;;;;;;;15.65;8.80;;;;;;;;;;5064349;28;20206;-60
2022/03/30 10:07:11;;;;;;;17.65;9.50;;;;;;;;;;5059219;28;20222;-60
2022/03/30 10:09:39;;;;;;;18.05;9.10;;;;;;;;;;5034205;28;20211;-60
2022/03/30 10:12:05;;;;;;;18.88;9.73;;;;;;;;;;5054391;28;20213;-60
2022/03/30 10:14:30;;;;;;;18.45;9.45;;;;;;;;;;5057595;28;20211;-61
2022/03/30 10:16:55;;;;;;;20.65;10.18;;;;;;;;;;5052441;28;20666;-60
2022/03/30 10:19:20;;;;;;;17.65;9.27;;;;;;;;;;5033397;28;20286;-61
2022/03/30 10:21:58;;;;;;;15.52;9.32;;;;;;;;;;5052447;28;20207;-61
2022/03/30 10:24:39;;;;;;;18.35;8.57;;;;;;;;;;5034217;28;20207;-60
2022/03/30 10:27:26;;;;;;;17.60;9.20;;;;;;;;;;5051845;28;20207;-61
2022/03/30 10:29:52;;;;;;;16.58;8.38;;;;;;;;;;5034999;28;20206;-60
2022/03/30 10:32:19;;;;;;;16.25;8.02;;;;;;;;;;5051104;28;20269;-60
2022/03/30 10:34:49;;;;;;;18.17;7.90;;;;;;;;;;5052275;28;20219;-60
2022/03/30 10:37:15;;;;;;;17.92;8.10;;;;;;;;;;5051663;28;20208;-61
2022/03/30 10:39:58;;;;;;;14.27;7.90;;;;;;;;;;5033437;28;20210;-60
2022/03/30 10:42:24;;;;;;;15.00;7.93;;;;;;;;;;5066626;28;20344;-60
2022/03/30 10:44:51;;;;;;;17.58;8.30;;;;;;;;;;5072111;28;20289;-60
2022/03/30 10:47:17;;;;;;;17.33;8.15;;;;;;;;;;5070854;28;20708;-60
2022/03/30 10:49:45;;;;;;;17.38;8.25;;;;;;;;;;5072153;28;20778;-61
2022/03/30 10:52:23;;;;;;;14.90;7.50;;;;;;;;;;5070509;28;20567;-60
2022/03/30 10:54:50;;;;;;;15.95;8.13;;;;;;;;;;5071361;28;20218;-60
2022/03/30 10:57:35;;;;;;;16.38;7.28;;;;;;;;;;5070961;28;20333;-60
2022/03/30 11:00:07;;;;;;;16.42;7.30;;;;;;;;;;5053666;28;20211;-60
2022/03/30 11:02:40;;;;;;;14.80;7.88;;;;;;;;;;5051577;28;20218;-60
2022/03/30 11:05:12;;;;;;;14.23;7.55;;;;;;;;;;5051288;28;20215;-61
2022/03/30 11:07:38;;;;;;;13.07;6.90;;;;;;;;;;5050990;28;20406;-60
2022/03/30 11:10:14;;;;;;;17.13;7.65;;;;;;;;;;5051263;28;20336;-61
2022/03/30 11:12:58;;;;;;;13.52;6.57;;;;;;;;;;5051196;28;20219;-60
2022/03/30 11:15:23;;;;;;;12.48;6.63;;;;;;;;;;5050028;28;20306;-61
2022/03/30 11:17:49;;;;;;;12.48;7.00;;;;;;;;;;5051349;28;20298;-60
2022/03/30 11:20:16;;;;;;;15.27;6.63;;;;;;;;;;5050964;28;20219;-60
2022/03/30 11:22:44;;;;;;;9.65;6.25;;;;;;;;;;5050601;28;20646;-60
2022/03/30 11:25:13;;;;;;;10.55;5.72;;;;;;;;;;5051020;28;20298;-61
2022/03/30 11:27:38;;;;;;;12.23;6.53;;;;;;;;;;5051927;28;20227;-60
2022/03/30 11:30:04;;;;;;;9.02;5.35;;;;;;;;;;5049908;28;20652;-61
2022/03/30 11:32:34;;;;;;;9.27;5.25;;;;;;;;;;5051349;28;20214;-60
2022/03/30 11:34:59;;;;;;;8.43;5.10;;;;;;;;;;5050331;28;20234;-60
2022/03/30 11:37:25;;;;;;;11.18;5.50;;;;;;;;;;5050829;28;20211;-60
2022/03/30 11:39:50;;;;;;;8.48;5.70;;;;;;;;;;5050949;28;20213;-60
2022/03/30 11:42:16;;;;;;;8.77;5.20;;;;;;;;;;5063712;28;20218;-60
2022/03/30 11:47:25;;;;;;;9.38;5.07;;;;;;;;;;5055520;28;20259;-60
2022/03/30 11:49:51;;;;;;;8.32;4.82;;;;;;;;;;5070042;28;20230;-60
2022/03/30 11:52:16;;;;;;;9.25;4.80;;;;;;;;;;5070484;28;20214;-60
2022/03/30 11:54:48;;;;;;;10.40;5.82;;;;;;;;;;5070779;28;20218;-60
2022/03/30 11:57:15;;;;;;;10.75;5.38;;;;;;;;;;5069247;28;20368;-61
2022/03/30 11:59:40;;;;;;;7.65;5.20;;;;;;;;;;5056872;28;20203;-60
2022/03/30 12:02:05;;;;;;;10.10;5.68;;;;;;;;;;5050475;28;20909;-60
2022/03/30 12:04:31;;;;;;;8.80;5.57;;;;;;;;;;5049709;28;20207;-60
2022/03/30 12:06:57;;;;;;;8.68;5.32;;;;;;;;;;5050820;28;20804;-60
2022/03/30 12:09:22;;;;;;;9.20;5.22;;;;;;;;;;5050055;28;20294;-60
2022/03/30 12:11:48;;;;;;;7.40;5.10;;;;;;;;;;5049815;28;20219;-60
2022/03/30 12:14:13;;;;;;;7.60;4.65;;;;;;;;;;5062594;28;20224;-60
2022/03/30 12:16:38;;;;;;;9.20;5.15;;;;;;;;;;5052591;28;20210;-60
2022/03/30 12:19:03;;;;;;;8.70;4.78;;;;;;;;;;5071072;28;20214;-60
2022/03/30 12:21:30;;;;;;;9.23;4.80;;;;;;;;;;5054925;28;20229;-60
2022/03/30 12:23:56;;;;;;;8.82;4.78;;;;;;;;;;5072416;28;20297;-60
2022/03/30 12:26:22;;;;;;;10.13;4.82;;;;;;;;;;5070923;28;20210;-60
2022/03/30 12:28:47;;;;;;;8.88;4.60;;;;;;;;;;5072287;28;20264;-60
2022/03/30 12:31:14;;;;;;;12.43;3.85;;;;;;;;;;5071130;28;20289;-60
2022/03/30 12:33:44;;;;;;;6.03;3.80;;;;;;;;;;5055057;28;20207;-60
2022/03/30 12:36:13;;;;;;;7.03;3.90;;;;;;;;;;5071755;28;20314;-60
2022/03/30 12:38:38;;;;;;;7.05;4.05;;;;;;;;;;5071818;28;20242;-60
2022/03/30 12:41:03;;;;;;;5.88;3.40;;;;;;;;;;5067796;28;20670;-60
2022/03/30 12:43:29;;;;;;;5.72;3.70;;;;;;;;;;5052239;28;20223;-60
2022/03/30 12:45:54;;;;;;;6.88;3.80;;;;;;;;;;5050142;28;20210;-60
2022/03/30 12:48:27;;;;;;;7.32;3.60;;;;;;;;;;5049789;28;20241;-60
2022/03/30 12:50:52;;;;;;;6.03;3.00;;;;;;;;;;5050130;28;20211;-60
2022/03/30 12:53:17;;;;;;;5.45;3.00;;;;;;;;;;5048824;28;20483;-60
2022/03/30 12:55:43;;;;;;;5.07;3.28;;;;;;;;;;5032160;28;20219;-60
2022/03/30 12:58:13;;;;;;;6.15;3.33;;;;;;;;;;5050343;28;20227;-60
2022/03/30 13:00:39;;;;;;;7.13;2.88;;;;;;;;;;5069137;28;20210;-60
2022/03/30 13:03:07;;;;;;;4.47;2.75;;;;;;;;;;5069067;28;20214;-60
2022/03/30 13:05:32;;;;;;;4.43;2.63;;;;;;;;;;5071653;28;20203;-60
2022/03/30 13:07:57;;;;;;;4.20;2.30;;;;;;;;;;5048175;28;20219;-61
2022/03/30 13:10:23;;;;;;;3.17;2.20;;;;;;;;;;5051230;28;20284;-61
2022/03/30 13:12:51;;;;;;;4.07;2.20;;;;;;;;;;5052984;28;20220;-60
2022/03/30 13:15:17;;;;;;;4.15;2.20;;;;;;;;;;5071459;28;20222;-61
2022/03/30 13:17:54;;;;;;;3.10;2.20;;;;;;;;;;5075692;28;20203;-60
2022/03/30 13:20:19;;;;;;;2.83;1.80;;;;;;;;;;5066959;28;20703;-60
2022/03/30 13:22:54;;;;;;;3.42;2.42;;;;;;;;;;5074715;28;20202;-61
2022/03/30 13:25:23;;;;;;;4.20;1.80;;;;;;;;;;5072861;28;20209;-61
2022/03/30 13:27:48;;;;;;;3.25;2.13;;;;;;;;;;5079938;28;20567;-60
2022/03/30 13:30:13;;;;;;;2.65;1.80;;;;;;;;;;5090781;28;20218;-61
2022/03/30 13:32:39;;;;;;;2.47;1.80;;;;;;;;;;5064925;28;20226;-61
2022/03/30 13:35:05;;;;;;;2.28;1.70;;;;;;;;;;5054464;28;20231;-61
2022/03/30 13:37:30;;;;;;;3.08;1.80;;;;;;;;;;5055306;28;20294;-60
2022/03/30 13:39:55;;;;;;;2.35;1.70;;;;;;;;;;5055465;28;20203;-60
2022/03/30 13:42:20;;;;;;;2.58;1.88;;;;;;;;;;5068617;28;20206;-60
2022/03/30 13:44:46;;;;;;;3.28;2.00;;;;;;;;;;5075378;28;20213;-60
2022/03/30 13:47:11;;;;;;;4.75;1.75;;;;;;;;;;5074656;28;20225;-60
2022/03/30 13:49:44;;;;;;;4.57;1.80;;;;;;;;;;5074414;28;20657;-60
2022/03/30 13:52:09;;;;;;;2.65;1.50;;;;;;;;;;5074520;28;20220;-60
2022/03/30 13:54:34;;;;;;;3.45;1.80;;;;;;;;;;5075354;28;20222;-60
2022/03/30 13:56:59;;;;;;;2.80;1.30;;;;;;;;;;5074084;28;20245;-60
2022/03/30 13:59:25;;;;;;;3.55;1.70;;;;;;;;;;5062874;28;20242;-60
2022/03/30 14:01:50;;;;;;;2.78;1.60;;;;;;;;;;5055019;28;20211;-60
2022/03/30 14:04:15;;;;;;;2.00;1.50;;;;;;;;;;5058416;28;20666;-60
2022/03/30 14:06:41;;;;;;;2.08;1.50;;;;;;;;;;5065930;28;20203;-60
2022/03/30 14:09:06;;;;;;;2.92;1.60;;;;;;;;;;5074481;28;20734;-60
2022/03/30 14:11:31;;;;;;;2.65;1.67;;;;;;;;;;5074199;28;20637;-59
2022/03/30 14:13:56;;;;;;;1.95;1.38;;;;;;;;;;5056378;28;20223;-59
2022/03/30 14:16:22;;;;;;;2.33;1.60;;;;;;;;;;5054118;28;20219;-60
2022/03/30 14:18:47;;;;;;;3.45;1.55;;;;;;;;;;5053748;28;20341;-59
2022/03/30 14:21:12;;;;;;;2.13;1.42;;;;;;;;;;5054042;28;20221;-60
2022/03/30 14:23:39;;;;;;;5.30;1.70;;;;;;;;;;5054665;28;20211;-60
2022/03/30 14:26:04;;;;;;;2.35;1.60;;;;;;;;;;5053376;28;20221;-60
2022/03/30 14:28:29;;;;;;;5.30;1.45;;;;;;;;;;5057884;28;20204;-60
2022/03/30 14:30:56;;;;;;;2.95;1.67;;;;;;;;;;5062642;28;20236;-59
2022/03/30 14:33:22;;;;;;;2.45;1.50;;;;;;;;;;5072544;28;20549;-59